Driggs, ID (83422)

4:50 PM MST on February 06, 2016 (GMT -0700)
Horseshoe Canyon | | Change Station
CLOSE
Current Station
Personal Weather Station
Location: Driggs, ID
Elevation: 6115 ft
Nearby Weather Stations

Elev 6115 ft 43.74 °N, 111.24 °W | Updated 11 seconds ago

Mostly Cloudy
Mostly Cloudy
22.8 °F
Feels Like 17 °F
N
4.0
Wind Variable Wind from NW
Gusts 4.9 mph

Today
High -- | Low -- °F
--% Chance of Precip.
Yesterday
High -- | Low -- °F
Precip. -- in
Pressure 30.43 in
Visibility 10.0 miles
Clouds Clear
Windchill 17 °F
Dew Point 15 °F
Humidity 72%
Rainfall 0.00 in
Snow Depth Not available.
7:36 AM 5:42 PM
Waning Crescent, 3% visible
METAR KDIJ 062256Z AUTO 17014KT 10SM CLR M01/M06 A3032 RMK AO2 SLP304 T10061056
Pressure 30.43 in
Visibility 10.0 miles
Clouds Clear
Windchill 17 °F
Dew Point 15 °F
Humidity 72%
Rainfall 0.00 in
Snow Depth Not available.
7:36 AM 5:42 PM
Waning Crescent, 3% visible
METAR KDIJ 062256Z AUTO 17014KT 10SM CLR M01/M06 A3032 RMK AO2 SLP304 T10061056

10-Day Weather Forecast

Almanac

Astronomy

Feb. 06, 2016 Rise Set
Actual Time
Civil Twilight
Nautical Twilight
Astronomical Twilight
Moon
Length of Visible Light
Length of Day
Tomorrow will be .
, % of the Moon is Illuminated

Today's Extremes

State Highs State Lows

Community

WunderPhotos

Upload Photos

1,891,098 photos uploaded!

WunderBlog® & News

Nearby

Air Quality

  Air Quality AQ Index Pollutant
Not available.

Snow Depth

Station Depth Elevation

Earthquake Activity

City Distance Mag. Time & Date
Minimum magnitude displayed is 2.5.

Coastal Water Temperatures

Place Temperature

Stations

Nearby Weather Stations

Station Location Temp. Windchill Dew Point Humidity Wind Precip. Elev Updated Type
                   

Watches & Warnings

There are currently no watches in effect.